Time;durP1;ratioP1;P1;durP2;ratioP2;P2;SDS_P1;SDS_P2;PMS_P1;PMS_P2;Temp;Humidity;BMP_temperature;BMP_pressure;BME280_temperature;BME280_humidity;BME280_pressure;Samples;Min_cycle;Max_cycle;Signal;HPM_P1;HPM_P2
2022/10/04 00:01:58;;;;;;;;;42.75;36.00;;;;;;;;5049141;28;45360;-75
2022/10/04 00:04:25;;;;;;;;;47.25;36.75;;;;;;;;5061437;28;45401;-75
2022/10/04 00:07:11;;;;;;;;;48.00;38.25;;;;;;;;5051893;28;46310;-75
2022/10/04 00:09:47;;;;;;;;;49.00;37.75;;;;;;;;5041143;28;45451;-74
2022/10/04 00:12:19;;;;;;;;;49.25;40.00;;;;;;;;5048888;28;45252;-75
2022/10/04 00:14:44;;;;;;;;;48.00;36.75;;;;;;;;5047722;28;45261;-75
2022/10/04 00:17:11;;;;;;;;;48.75;38.50;;;;;;;;5053744;28;46190;-75
2022/10/04 00:19:36;;;;;;;;;44.50;38.50;;;;;;;;5061552;28;45425;-75
2022/10/04 00:22:09;;;;;;;;;42.50;37.25;;;;;;;;5055659;28;45466;-75
2022/10/04 00:24:35;;;;;;;;;41.00;35.50;;;;;;;;5089025;27;45817;-76
2022/10/04 00:27:19;;;;;;;;;50.75;38.50;;;;;;;;5049990;28;45481;-75
2022/10/04 00:29:49;;;;;;;;;47.50;36.50;;;;;;;;5056800;28;45231;-76
2022/10/04 00:32:14;;;;;;;;;43.50;37.50;;;;;;;;5049198;28;45432;-76
2022/10/04 00:34:42;;;;;;;;;42.75;37.50;;;;;;;;5060768;28;45400;-75
2022/10/04 00:37:15;;;;;;;;;49.00;40.00;;;;;;;;5055962;28;46975;-76
2022/10/04 00:39:41;;;;;;;;;42.75;38.00;;;;;;;;5055593;28;45304;-75
2022/10/04 00:42:15;;;;;;;;;46.25;37.50;;;;;;;;5055261;28;45509;-75
2022/10/04 00:44:50;;;;;;;;;46.75;41.50;;;;;;;;5057482;28;45671;-75
2022/10/04 00:47:31;;;;;;;;;39.00;29.50;;;;;;;;5056244;28;46147;-75
2022/10/04 00:50:03;;;;;;;;;44.50;37.25;;;;;;;;5059806;28;45470;-76
2022/10/04 00:52:31;;;;;;;;;44.25;36.00;;;;;;;;5050324;28;45421;-75
2022/10/04 00:54:58;;;;;;;;;45.75;38.75;;;;;;;;5058822;28;45962;-75
2022/10/04 00:57:31;;;;;;;;;48.50;39.00;;;;;;;;5056120;28;46126;-75
2022/10/04 01:00:01;;;;;;;;;41.00;36.00;;;;;;;;5043942;28;45306;-75
2022/10/04 01:02:34;;;;;;;;;49.00;39.00;;;;;;;;5052177;28;45388;-75
2022/10/04 01:05:06;;;;;;;;;49.25;36.25;;;;;;;;5045844;28;45466;-75
2022/10/04 01:07:34;;;;;;;;;45.25;35.50;;;;;;;;5052384;28;45407;-75
2022/10/04 01:10:03;;;;;;;;;49.50;38.00;;;;;;;;5048664;28;45371;-75
2022/10/04 01:12:35;;;;;;;;;45.50;39.00;;;;;;;;5054271;28;45225;-75
2022/10/04 01:15:06;;;;;;;;;50.50;39.75;;;;;;;;5051277;28;45296;-75
2022/10/04 01:17:32;;;;;;;;;49.00;39.50;;;;;;;;5067442;28;48116;-75
2022/10/04 01:19:57;;;;;;;;;50.00;40.25;;;;;;;;5089789;27;44830;-75
2022/10/04 01:22:39;;;;;;;;;52.50;38.75;;;;;;;;5054392;28;45465;-75
2022/10/04 01:25:04;;;;;;;;;44.50;36.50;;;;;;;;5056824;28;45217;-75
2022/10/04 01:27:29;;;;;;;;;48.75;38.00;;;;;;;;5056183;28;45494;-75
2022/10/04 01:29:55;;;;;;;;;48.25;39.00;;;;;;;;5056919;28;44670;-75
2022/10/04 01:32:21;;;;;;;;;53.00;41.50;;;;;;;;5051346;28;45351;-74
2022/10/04 01:34:47;;;;;;;;;49.75;42.75;;;;;;;;5057710;28;46721;-74
2022/10/04 01:37:13;;;;;;;;;47.75;40.25;;;;;;;;5054700;28;45434;-74
2022/10/04 01:39:38;;;;;;;;;48.75;39.00;;;;;;;;5044844;28;45318;-74
2022/10/04 01:42:07;;;;;;;;;44.75;37.00;;;;;;;;5054415;28;45500;-74
2022/10/04 01:44:48;;;;;;;;;46.00;38.00;;;;;;;;5057516;28;45236;-74
2022/10/04 01:47:18;;;;;;;;;51.00;41.00;;;;;;;;5048086;28;45453;-75
2022/10/04 01:49:45;;;;;;;;;47.50;38.00;;;;;;;;5083944;27;45184;-74
2022/10/04 01:52:17;;;;;;;;;52.50;40.75;;;;;;;;5054053;28;45841;-75
2022/10/04 01:54:43;;;;;;;;;54.25;42.25;;;;;;;;5092216;27;46134;-75
2022/10/04 01:57:17;;;;;;;;;51.75;41.75;;;;;;;;5054573;28;45913;-75
2022/10/04 01:59:48;;;;;;;;;55.25;43.75;;;;;;;;5059502;28;45222;-75
2022/10/04 02:02:33;;;;;;;;;58.25;46.50;;;;;;;;5053322;28;45701;-75
2022/10/04 02:04:59;;;;;;;;;60.50;46.75;;;;;;;;5050739;28;45555;-75
2022/10/04 02:07:28;;;;;;;;;55.75;42.25;;;;;;;;5053436;28;45264;-75
2022/10/04 02:09:57;;;;;;;;;55.50;43.00;;;;;;;;5050726;28;45287;-75
2022/10/04 02:12:22;;;;;;;;;50.75;42.50;;;;;;;;5053600;28;45453;-74
2022/10/04 02:14:51;;;;;;;;;52.75;41.25;;;;;;;;5059095;28;45504;-74
2022/10/04 02:17:18;;;;;;;;;53.75;41.75;;;;;;;;5055280;28;45497;-75
2022/10/04 02:19:43;;;;;;;;;55.25;45.75;;;;;;;;5070287;28;46093;-74
2022/10/04 02:22:10;;;;;;;;;58.00;44.25;;;;;;;;5052907;28;45220;-74
2022/10/04 02:24:41;;;;;;;;;52.25;40.75;;;;;;;;5052980;28;45375;-74
2022/10/04 02:27:06;;;;;;;;;51.75;42.50;;;;;;;;5053453;28;45373;-74
2022/10/04 02:29:32;;;;;;;;;51.25;40.50;;;;;;;;5055540;28;45198;-74
2022/10/04 02:34:41;;;;;;;;;53.00;42.25;;;;;;;;5045171;28;45213;-75
2022/10/04 02:37:07;;;;;;;;;50.00;41.00;;;;;;;;5052122;28;45360;-75
2022/10/04 02:39:36;;;;;;;;;52.25;42.25;;;;;;;;5043933;28;45564;-74
2022/10/04 02:42:18;;;;;;;;;53.25;44.50;;;;;;;;5053220;28;45382;-75
2022/10/04 02:44:47;;;;;;;;;55.75;45.00;;;;;;;;5055321;28;45443;-75
2022/10/04 02:47:17;;;;;;;;;56.75;44.00;;;;;;;;5053807;28;47092;-74
2022/10/04 02:49:51;;;;;;;;;59.75;45.50;;;;;;;;5054124;28;45214;-75
2022/10/04 02:52:27;;;;;;;;;51.00;40.50;;;;;;;;5054368;28;45466;-74
2022/10/04 02:55:01;;;;;;;;;56.75;44.75;;;;;;;;5047648;28;45960;-74
2022/10/04 02:57:28;;;;;;;;;49.25;39.00;;;;;;;;5053098;28;45429;-74
2022/10/04 03:00:01;;;;;;;;;44.50;40.00;;;;;;;;5052968;28;45297;-74
2022/10/04 03:02:27;;;;;;;;;53.00;42.75;;;;;;;;5053962;28;45394;-74
2022/10/04 03:04:55;;;;;;;;;40.50;36.25;;;;;;;;5048692;28;45236;-75
2022/10/04 03:07:22;;;;;;;;;49.00;39.00;;;;;;;;5052099;28;45477;-74
2022/10/04 03:09:48;;;;;;;;;50.00;42.00;;;;;;;;5052103;28;45426;-74
2022/10/04 03:12:14;;;;;;;;;46.25;37.25;;;;;;;;5049685;28;45363;-76
2022/10/04 03:14:39;;;;;;;;;43.50;36.75;;;;;;;;5056318;28;45308;-74
2022/10/04 03:17:04;;;;;;;;;49.75;38.00;;;;;;;;5045902;28;45337;-75
2022/10/04 03:19:31;;;;;;;;;49.25;39.25;;;;;;;;5078301;27;45448;-75
2022/10/04 03:21:59;;;;;;;;;42.25;36.00;;;;;;;;5045464;28;45202;-74
2022/10/04 03:24:31;;;;;;;;;45.25;37.00;;;;;;;;5057294;28;45363;-75
2022/10/04 03:26:58;;;;;;;;;51.00;41.00;;;;;;;;5052163;28;45283;-74
2022/10/04 03:29:26;;;;;;;;;50.50;40.25;;;;;;;;5045709;28;44688;-74
2022/10/04 03:31:56;;;;;;;;;52.50;40.25;;;;;;;;5053736;28;45456;-74
2022/10/04 03:34:23;;;;;;;;;41.75;34.75;;;;;;;;5052708;28;45523;-75
2022/10/04 03:36:49;;;;;;;;;48.00;39.75;;;;;;;;5054186;28;46288;-74
2022/10/04 03:39:18;;;;;;;;;55.25;41.00;;;;;;;;5055711;28;45279;-75
2022/10/04 03:41:43;;;;;;;;;44.50;38.75;;;;;;;;5048215;28;45823;-74
2022/10/04 03:44:16;;;;;;;;;52.75;40.75;;;;;;;;5057966;28;45400;-75
2022/10/04 03:46:42;;;;;;;;;53.50;39.75;;;;;;;;5054505;28;46328;-76
2022/10/04 03:49:07;;;;;;;;;48.00;39.00;;;;;;;;5045468;28;45339;-75
2022/10/04 03:51:33;;;;;;;;;51.00;42.50;;;;;;;;5046528;28;45502;-74
2022/10/04 03:54:00;;;;;;;;;51.00;41.75;;;;;;;;5070138;28;45918;-75
2022/10/04 03:56:27;;;;;;;;;51.50;39.25;;;;;;;;5051801;28;45514;-75
2022/10/04 03:58:52;;;;;;;;;50.00;40.50;;;;;;;;5054746;28;45316;-75
2022/10/04 04:01:33;;;;;;;;;54.75;44.25;;;;;;;;5053253;28;45232;-75
2022/10/04 04:04:17;;;;;;;;;44.00;39.00;;;;;;;;5065692;28;46974;-75
2022/10/04 04:06:50;;;;;;;;;44.50;38.00;;;;;;;;5046470;28;45418;-75
2022/10/04 04:09:19;;;;;;;;;53.25;41.25;;;;;;;;5054584;28;45182;-75
2022/10/04 04:11:46;;;;;;;;;50.50;43.50;;;;;;;;5051236;28;45502;-75
2022/10/04 04:14:17;;;;;;;;;46.50;37.25;;;;;;;;5059371;28;45882;-74
2022/10/04 04:16:42;;;;;;;;;46.00;38.75;;;;;;;;5056000;28;47375;-75
2022/10/04 04:19:12;;;;;;;;;54.25;40.75;;;;;;;;5053695;28;45468;-77
2022/10/04 04:21:37;;;;;;;;;50.25;41.00;;;;;;;;5052693;28;45240;-76
2022/10/04 04:24:13;;;;;;;;;52.75;43.25;;;;;;;;5059086;28;45583;-75
2022/10/04 04:26:41;;;;;;;;;53.00;44.00;;;;;;;;5054431;28;45446;-74
2022/10/04 04:29:09;;;;;;;;;60.50;43.50;;;;;;;;5061029;28;45318;-75
2022/10/04 04:31:40;;;;;;;;;56.25;44.25;;;;;;;;5056204;28;45261;-75
2022/10/04 04:34:14;;;;;;;;;57.25;44.50;;;;;;;;5090134;27;45400;-75
2022/10/04 04:36:40;;;;;;;;;54.25;43.25;;;;;;;;5049715;28;45218;-75
2022/10/04 04:41:55;;;;;;;;;50.50;39.75;;;;;;;;5058645;28;45263;-76
2022/10/04 04:44:20;;;;;;;;;56.25;41.25;;;;;;;;5056973;28;45474;-76
2022/10/04 04:46:46;;;;;;;;;47.75;39.00;;;;;;;;5058620;28;46060;-76
2022/10/04 04:49:14;;;;;;;;;55.75;43.75;;;;;;;;5061146;28;45406;-78
2022/10/04 04:51:40;;;;;;;;;52.75;41.25;;;;;;;;5049211;28;45283;-76
2022/10/04 04:54:06;;;;;;;;;49.00;37.25;;;;;;;;5053940;28;46601;-77
2022/10/04 04:56:32;;;;;;;;;47.00;39.75;;;;;;;;5049887;28;46455;-76
2022/10/04 04:59:00;;;;;;;;;36.25;34.00;;;;;;;;5057031;28;45637;-76
2022/10/04 05:01:27;;;;;;;;;41.50;37.50;;;;;;;;5050227;28;45908;-75
2022/10/04 05:04:02;;;;;;;;;40.75;34.00;;;;;;;;5058980;28;45627;-77
2022/10/04 05:06:29;;;;;;;;;46.00;36.75;;;;;;;;5087350;27;46908;-75
2022/10/04 05:08:54;;;;;;;;;39.75;36.00;;;;;;;;5057519;28;45237;-76
2022/10/04 05:11:21;;;;;;;;;44.25;39.75;;;;;;;;5048175;28;44794;-76
2022/10/04 05:13:46;;;;;;;;;50.50;38.00;;;;;;;;5058547;28;45352;-78
2022/10/04 05:16:15;;;;;;;;;57.75;46.25;;;;;;;;5051541;28;45711;-77
2022/10/04 05:18:40;;;;;;;;;58.00;46.75;;;;;;;;5086042;27;45410;-75
2022/10/04 05:21:16;;;;;;;;;49.00;41.25;;;;;;;;5053774;28;45351;-74
2022/10/04 05:23:42;;;;;;;;;49.50;39.50;;;;;;;;5049539;28;45280;-75
2022/10/04 05:26:10;;;;;;;;;41.75;36.25;;;;;;;;5072442;27;48033;-74
2022/10/04 05:28:35;;;;;;;;;40.75;33.75;;;;;;;;5058793;28;45254;-74
2022/10/04 05:31:03;;;;;;;;;39.00;34.50;;;;;;;;5058652;28;45240;-74
2022/10/04 05:33:48;;;;;;;;;34.50;30.75;;;;;;;;5053214;28;45587;-75
2022/10/04 05:36:29;;;;;;;;;40.75;35.50;;;;;;;;5069453;27;47241;-74
2022/10/04 05:39:02;;;;;;;;;29.25;28.25;;;;;;;;5053980;28;45368;-74
2022/10/04 05:41:33;;;;;;;;;38.50;34.75;;;;;;;;5068662;27;45364;-76
2022/10/04 05:44:00;;;;;;;;;43.00;37.00;;;;;;;;5044226;28;45480;-74
2022/10/04 05:46:27;;;;;;;;;36.00;33.75;;;;;;;;5051087;28;45467;-74
2022/10/04 05:49:05;;;;;;;;;42.75;37.25;;;;;;;;5051304;28;45331;-74
2022/10/04 05:51:36;;;;;;;;;42.75;37.00;;;;;;;;5053227;28;45257;-75
2022/10/04 05:54:02;;;;;;;;;41.75;37.00;;;;;;;;5049409;28;45403;-75
2022/10/04 05:56:39;;;;;;;;;47.50;38.00;;;;;;;;5047714;28;46196;-74
2022/10/04 05:59:23;;;;;;;;;40.50;37.25;;;;;;;;5052477;28;45410;-75
2022/10/04 06:01:54;;;;;;;;;38.50;35.50;;;;;;;;5047266;28;45268;-75
2022/10/04 06:04:38;;;;;;;;;47.25;36.00;;;;;;;;5056406;28;45275;-75
2022/10/04 06:07:14;;;;;;;;;41.50;34.75;;;;;;;;5051278;28;46390;-74
2022/10/04 06:09:51;;;;;;;;;38.50;35.25;;;;;;;;5064152;28;45470;-75
2022/10/04 06:12:19;;;;;;;;;46.75;38.75;;;;;;;;5047275;28;45248;-75
2022/10/04 06:15:07;;;;;;;;;45.75;35.75;;;;;;;;5048161;28;45146;-75
2022/10/04 06:17:51;;;;;;;;;37.50;33.00;;;;;;;;5049224;28;47326;-74
2022/10/04 06:20:28;;;;;;;;;45.75;37.00;;;;;;;;5047531;28;45490;-74
2022/10/04 06:22:58;;;;;;;;;46.75;38.50;;;;;;;;5054867;28;45327;-74
2022/10/04 06:25:29;;;;;;;;;37.25;36.00;;;;;;;;5049711;28;45224;-74
2022/10/04 06:28:00;;;;;;;;;40.75;36.75;;;;;;;;5052969;28;46042;-74
2022/10/04 06:30:28;;;;;;;;;41.50;37.00;;;;;;;;5050156;28;45670;-74
2022/10/04 06:33:06;;;;;;;;;42.00;36.50;;;;;;;;5056802;28;45375;-73
2022/10/04 06:35:33;;;;;;;;;48.75;40.00;;;;;;;;5052872;28;45187;-74
2022/10/04 06:38:08;;;;;;;;;40.50;37.00;;;;;;;;5058152;28;45278;-73
2022/10/04 06:40:53;;;;;;;;;50.25;39.00;;;;;;;;5055520;28;46921;-74
2022/10/04 06:43:36;;;;;;;;;38.75;36.75;;;;;;;;5048890;28;45422;-73
2022/10/04 06:46:02;;;;;;;;;46.00;39.00;;;;;;;;5044344;28;45355;-73
2022/10/04 06:48:39;;;;;;;;;57.00;47.25;;;;;;;;5050006;28;45266;-73
2022/10/04 06:51:12;;;;;;;;;80.75;60.25;;;;;;;;5070213;27;45493;-74
2022/10/04 06:53:56;;;;;;;;;69.75;53.25;;;;;;;;5047166;28;45481;-74
2022/10/04 06:56:40;;;;;;;;;67.25;51.75;;;;;;;;5043709;28;45524;-74
2022/10/04 06:59:09;;;;;;;;;77.00;57.50;;;;;;;;5067227;28;47330;-75
2022/10/04 07:01:37;;;;;;;;;68.00;53.00;;;;;;;;5053349;28;45684;-74
2022/10/04 07:04:02;;;;;;;;;61.00;45.75;;;;;;;;5058652;28;45253;-74
2022/10/04 07:06:31;;;;;;;;;48.25;39.00;;;;;;;;5056913;28;45363;-74
2022/10/04 07:09:01;;;;;;;;;52.25;42.25;;;;;;;;5050550;28;45265;-74
2022/10/04 07:11:29;;;;;;;;;53.75;43.50;;;;;;;;5045065;28;45501;-74
2022/10/04 07:14:01;;;;;;;;;56.75;42.75;;;;;;;;5051234;28;45755;-74
2022/10/04 07:16:26;;;;;;;;;55.25;45.50;;;;;;;;5046565;28;45564;-74
2022/10/04 07:19:09;;;;;;;;;54.25;43.00;;;;;;;;5054239;28;45375;-74
2022/10/04 07:21:47;;;;;;;;;54.25;44.50;;;;;;;;5048061;28;45761;-74
2022/10/04 07:24:19;;;;;;;;;52.50;44.00;;;;;;;;5058081;28;45411;-73
2022/10/04 07:26:46;;;;;;;;;56.75;44.00;;;;;;;;5051276;28;46214;-73
2022/10/04 07:29:23;;;;;;;;;57.00;45.25;;;;;;;;5050623;28;45405;-73
2022/10/04 07:32:07;;;;;;;;;50.50;41.50;;;;;;;;5048907;28;45538;-73
2022/10/04 07:34:49;;;;;;;;;50.50;40.50;;;;;;;;5044797;28;45454;-73
2022/10/04 07:37:14;;;;;;;;;43.75;39.25;;;;;;;;5051294;28;45284;-73
2022/10/04 07:40:03;;;;;;;;;51.50;39.25;;;;;;;;5045593;28;45318;-73
2022/10/04 07:42:58;;;;;;;;;54.00;43.00;;;;;;;;5026352;28;45488;-74
2022/10/04 07:45:32;;;;;;;;;51.00;41.00;;;;;;;;5039119;28;45398;-74
2022/10/04 07:48:14;;;;;;;;;49.75;40.50;;;;;;;;5052509;28;45624;-74
2022/10/04 07:50:55;;;;;;;;;51.25;42.00;;;;;;;;5058069;28;45632;-73
2022/10/04 07:53:25;;;;;;;;;55.75;44.75;;;;;;;;5050829;28;45399;-74
2022/10/04 07:56:09;;;;;;;;;47.50;39.50;;;;;;;;5072876;27;45267;-74
2022/10/04 07:58:43;;;;;;;;;54.25;43.50;;;;;;;;5071399;28;45578;-74
2022/10/04 08:01:44;;;;;;;;;50.50;39.25;;;;;;;;5053352;28;45325;-74
2022/10/04 08:04:21;;;;;;;;;50.50;40.25;;;;;;;;4995322;28;45481;-74
2022/10/04 08:07:08;;;;;;;;;54.00;40.75;;;;;;;;5047076;28;45327;-74
2022/10/04 08:09:50;;;;;;;;;49.00;40.25;;;;;;;;5050198;28;46251;-73
2022/10/04 08:12:32;;;;;;;;;55.75;42.75;;;;;;;;5049507;28;46003;-76
2022/10/04 08:15:01;;;;;;;;;52.50;41.25;;;;;;;;5051768;28;45347;-77
2022/10/04 08:17:40;;;;;;;;;52.00;42.25;;;;;;;;5052979;28;45382;-76
2022/10/04 08:20:12;;;;;;;;;54.25;43.00;;;;;;;;5053875;28;45228;-75
2022/10/04 08:22:51;;;;;;;;;48.00;39.75;;;;;;;;5056344;28;46037;-75
2022/10/04 08:25:22;;;;;;;;;49.25;41.50;;;;;;;;5060457;28;45742;-75
2022/10/04 08:31:13;;;;;;;;;50.00;40.00;;;;;;;;5053427;28;45294;-76
2022/10/04 08:33:57;;;;;;;;;51.25;43.50;;;;;;;;5026965;28;45396;-75
2022/10/04 08:36:40;;;;;;;;;57.00;46.25;;;;;;;;5056984;28;45178;-76
2022/10/04 08:39:18;;;;;;;;;52.00;43.25;;;;;;;;5059044;28;45263;-76
2022/10/04 08:41:44;;;;;;;;;48.75;41.75;;;;;;;;5047091;28;45408;-76
2022/10/04 08:44:12;;;;;;;;;55.75;43.50;;;;;;;;5047254;28;46172;-76
2022/10/04 08:46:57;;;;;;;;;57.75;47.50;;;;;;;;5047310;28;45461;-76
2022/10/04 08:49:41;;;;;;;;;50.50;41.50;;;;;;;;5048653;28;45435;-75
2022/10/04 08:52:21;;;;;;;;;57.25;43.50;;;;;;;;5049074;28;47469;-76
2022/10/04 08:54:56;;;;;;;;;53.00;43.25;;;;;;;;5045566;28;46241;-76
2022/10/04 08:57:39;;;;;;;;;42.75;36.50;;;;;;;;5055874;28;46477;-76
2022/10/04 09:00:19;;;;;;;;;50.75;43.25;;;;;;;;5050006;28;45617;-76
2022/10/04 09:02:50;;;;;;;;;55.50;45.25;;;;;;;;5051755;28;45178;-75
2022/10/04 09:05:28;;;;;;;;;62.50;50.50;;;;;;;;5052864;28;45552;-75
2022/10/04 09:07:53;;;;;;;;;49.00;41.00;;;;;;;;5055938;28;45291;-75
2022/10/04 09:10:21;;;;;;;;;46.75;38.75;;;;;;;;5056322;28;45311;-76
2022/10/04 09:13:04;;;;;;;;;46.50;39.50;;;;;;;;5068000;28;46298;-75
2022/10/04 09:15:32;;;;;;;;;52.25;41.00;;;;;;;;5042368;28;45241;-76
2022/10/04 09:18:02;;;;;;;;;48.00;38.00;;;;;;;;5049715;28;45259;-77
2022/10/04 09:20:44;;;;;;;;;39.75;36.00;;;;;;;;5045807;28;45190;-75
2022/10/04 09:23:16;;;;;;;;;52.50;41.00;;;;;;;;5051616;28;45225;-75
2022/10/04 09:25:59;;;;;;;;;46.25;37.00;;;;;;;;5048023;28;46437;-75
2022/10/04 09:28:43;;;;;;;;;43.75;37.25;;;;;;;;5054978;28;45228;-75
2022/10/04 09:31:09;;;;;;;;;45.00;35.75;;;;;;;;5053785;28;45595;-75
2022/10/04 09:33:40;;;;;;;;;40.75;36.25;;;;;;;;5048941;28;45225;-75
2022/10/04 09:36:08;;;;;;;;;47.25;37.50;;;;;;;;5053860;28;45477;-75
2022/10/04 09:38:54;;;;;;;;;41.50;33.50;;;;;;;;5057342;28;45221;-75
2022/10/04 09:41:38;;;;;;;;;43.75;36.00;;;;;;;;5056772;28;45375;-75
2022/10/04 09:44:22;;;;;;;;;43.50;36.00;;;;;;;;5058027;28;45181;-76
2022/10/04 09:46:54;;;;;;;;;45.25;37.00;;;;;;;;5048923;28;45436;-75
2022/10/04 09:49:42;;;;;;;;;45.75;36.75;;;;;;;;5058627;28;45481;-75
2022/10/04 09:52:26;;;;;;;;;44.75;37.00;;;;;;;;5076151;27;45529;-75
2022/10/04 09:54:55;;;;;;;;;43.50;36.00;;;;;;;;5052559;28;45213;-75
2022/10/04 09:57:33;;;;;;;;;38.25;32.25;;;;;;;;5070705;27;46689;-75
2022/10/04 10:00:01;;;;;;;;;41.50;34.50;;;;;;;;5057501;28;45307;-75
2022/10/04 10:02:49;;;;;;;;;32.33;29.67;;;;;;;;5051899;28;45426;-76
2022/10/04 10:05:29;;;;;;;;;14.67;11.33;;;;;;;;5057776;28;45512;-76
2022/10/04 10:07:55;;;;;;;;;23.33;22.67;;;;;;;;5067014;28;46377;-77
2022/10/04 10:13:41;;;;;;;;;28.33;26.33;;;;;;;;5044166;28;45404;-76
2022/10/04 10:16:28;;;;;;;;;23.67;22.00;;;;;;;;5044522;28;45317;-77
2022/10/04 10:19:13;;;;;;;;;25.00;24.00;;;;;;;;5051528;28;45375;-76
2022/10/04 10:21:45;;;;;;;;;20.67;18.67;;;;;;;;5052342;28;45387;-77
2022/10/04 10:24:29;;;;;;;;;19.67;19.67;;;;;;;;5055878;28;45250;-77
2022/10/04 10:27:18;;;;;;;;;19.00;18.00;;;;;;;;5047983;28;45580;-77
2022/10/04 10:30:02;;;;;;;;;17.33;15.00;;;;;;;;5089254;27;47214;-76
2022/10/04 10:32:46;;;;;;;;;19.67;19.33;;;;;;;;5055996;28;45273;-77
2022/10/04 10:35:23;;;;;;;;;18.33;17.33;;;;;;;;5083623;27;45464;-77
2022/10/04 10:37:57;;;;;;;;;23.33;23.00;;;;;;;;5056289;28;45548;-77
2022/10/04 10:40:39;;;;;;;;;16.33;13.67;;;;;;;;5049347;28;45466;-77
2022/10/04 10:43:14;;;;;;;;;18.33;18.33;;;;;;;;5054017;28;45493;-78
2022/10/04 10:45:55;;;;;;;;;31.67;26.67;;;;;;;;5050905;28;45196;-78
2022/10/04 10:48:30;;;;;;;;;21.00;19.33;;;;;;;;5056719;28;45428;-76
2022/10/04 10:50:58;;;;;;;;;29.67;22.33;;;;;;;;5055921;28;46320;-78
2022/10/04 10:53:44;;;;;;;;;19.67;18.67;;;;;;;;5064636;28;45257;-78
2022/10/04 10:56:12;;;;;;;;;22.33;19.00;;;;;;;;5046887;28;45498;-78
2022/10/04 10:58:56;;;;;;;;;28.33;25.00;;;;;;;;5053144;28;45561;-78
2022/10/04 11:01:36;;;;;;;;;25.33;23.33;;;;;;;;5049465;28;46371;-78
2022/10/04 11:04:13;;;;;;;;;28.33;23.67;;;;;;;;5058167;28;46528;-78
2022/10/04 11:06:57;;;;;;;;;25.33;24.33;;;;;;;;5055631;28;45531;-78
2022/10/04 11:09:30;;;;;;;;;24.00;18.00;;;;;;;;5072712;28;45708;-78
2022/10/04 11:12:14;;;;;;;;;19.00;16.00;;;;;;;;5049504;28;46259;-78
2022/10/04 11:14:51;;;;;;;;;19.00;17.00;;;;;;;;5048384;28;45462;-78
2022/10/04 11:17:19;;;;;;;;;11.00;11.00;;;;;;;;5049221;28;45463;-78
2022/10/04 11:20:04;;;;;;;;;19.67;17.00;;;;;;;;5053430;28;45475;-79
2022/10/04 11:22:44;;;;;;;;;15.00;15.00;;;;;;;;5053815;28;45354;-76
2022/10/04 11:25:33;;;;;;;;;15.75;12.75;;;;;;;;5055900;28;45424;-76
2022/10/04 11:28:11;;;;;;;;;18.00;15.00;;;;;;;;5074246;28;45331;-73
2022/10/04 11:30:51;;;;;;;;;15.75;13.50;;;;;;;;5055213;28;45430;-75
2022/10/04 11:33:37;;;;;;;;;14.00;13.00;;;;;;;;5091404;27;47045;-76
2022/10/04 11:36:03;;;;;;;;;13.00;12.25;;;;;;;;5056959;28;45212;-75
2022/10/04 11:38:47;;;;;;;;;19.00;15.25;;;;;;;;5061817;28;45224;-76
2022/10/04 11:41:27;;;;;;;;;13.75;12.75;;;;;;;;5057797;28;46126;-76
2022/10/04 11:44:16;;;;;;;;;17.25;15.00;;;;;;;;5061133;28;46304;-76
2022/10/04 11:46:50;;;;;;;;;16.00;16.00;;;;;;;;5058162;28;45352;-76
2022/10/04 11:49:24;;;;;;;;;13.00;12.75;;;;;;;;5061396;28;45469;-76
2022/10/04 11:52:08;;;;;;;;;10.25;8.75;;;;;;;;5060426;28;45589;-76
2022/10/04 11:54:39;;;;;;;;;17.00;13.75;;;;;;;;5061332;28;47133;-76
2022/10/04 11:57:15;;;;;;;;;14.25;13.25;;;;;;;;5057537;28;45378;-75
2022/10/04 11:59:47;;;;;;;;;14.50;12.00;;;;;;;;5060506;28;45601;-76
2022/10/04 12:02:22;;;;;;;;;13.00;13.00;;;;;;;;5058966;28;46152;-76
2022/10/04 12:04:53;;;;;;;;;11.25;11.25;;;;;;;;5059364;28;45414;-76
2022/10/04 12:07:30;;;;;;;;;17.50;13.50;;;;;;;;5058711;28;45290;-76
2022/10/04 12:10:18;;;;;;;;;13.75;13.75;;;;;;;;5061363;28;45474;-76
2022/10/04 12:13:02;;;;;;;;;12.00;12.00;;;;;;;;5061796;28;45945;-77
2022/10/04 12:15:35;;;;;;;;;14.75;13.25;;;;;;;;5040846;28;45992;-77
2022/10/04 12:18:10;;;;;;;;;13.50;13.50;;;;;;;;5056579;28;45279;-76
2022/10/04 12:20:55;;;;;;;;;14.50;13.75;;;;;;;;5046321;28;45376;-76
2022/10/04 12:23:20;;;;;;;;;14.75;13.00;;;;;;;;5074180;28;46266;-76
2022/10/04 12:25:52;;;;;;;;;14.40;11.40;;;;;;;;5054108;28;45441;-75
2022/10/04 12:28:36;;;;;;;;;15.00;13.00;;;;;;;;5057348;28;45409;-76
2022/10/04 12:31:31;;;;;;;;;14.00;13.00;;;;;;;;5056041;28;45292;-76
2022/10/04 12:33:59;;;;;;;;;13.25;11.50;;;;;;;;5041651;28;45732;-76
2022/10/04 12:36:24;;;;;;;;;9.00;8.00;;;;;;;;5057439;28;46128;-76
2022/10/04 12:39:05;;;;;;;;;10.00;10.00;;;;;;;;5058839;28;45384;-76
2022/10/04 12:41:37;;;;;;;;;8.75;7.50;;;;;;;;5079584;27;45481;-76
2022/10/04 12:44:16;;;;;;;;;13.00;10.50;;;;;;;;5069071;28;47239;-76
2022/10/04 12:46:51;;;;;;;;;14.25;12.25;;;;;;;;5057870;28;45533;-76
2022/10/04 12:49:46;;;;;;;;;10.00;8.50;;;;;;;;5060599;28;45562;-76
2022/10/04 12:52:23;;;;;;;;;12.00;12.00;;;;;;;;5016624;28;44967;-76
2022/10/04 12:55:03;;;;;;;;;16.50;14.25;;;;;;;;5043965;28;45364;-76
2022/10/04 12:57:28;;;;;;;;;11.25;10.50;;;;;;;;5050949;28;45343;-76
2022/10/04 12:59:53;;;;;;;;;11.00;10.00;;;;;;;;5056165;28;45224;-76
2022/10/04 13:02:25;;;;;;;;;15.25;13.00;;;;;;;;5050453;28;45178;-76
2022/10/04 13:04:50;;;;;;;;;14.00;12.75;;;;;;;;5060381;28;45158;-75
2022/10/04 13:07:27;;;;;;;;;13.75;12.00;;;;;;;;5057369;28;45395;-77
2022/10/04 13:09:56;;;;;;;;;14.25;12.25;;;;;;;;5046135;28;45299;-76
2022/10/04 13:12:59;;;;;;;;;11.50;11.25;;;;;;;;5055255;28;45376;-76
2022/10/04 13:15:57;;;;;;;;;11.50;10.75;;;;;;;;5051685;28;45261;-76
2022/10/04 13:18:54;;;;;;;;;5.00;5.00;;;;;;;;5004180;28;45468;-76
2022/10/04 13:21:39;;;;;;;;;5.00;5.00;;;;;;;;5033591;28;45394;-76
2022/10/04 13:24:23;;;;;;;;;7.00;5.50;;;;;;;;5058863;28;45292;-77
2022/10/04 13:27:02;;;;;;;;;4.75;4.75;;;;;;;;5055556;28;45395;-76
2022/10/04 13:29:29;;;;;;;;;4.00;4.00;;;;;;;;5053377;28;45446;-76
2022/10/04 13:31:57;;;;;;;;;4.00;4.00;;;;;;;;5056487;28;45293;-76
2022/10/04 13:34:31;;;;;;;;;5.50;5.50;;;;;;;;5056436;28;45398;-76
2022/10/04 13:37:15;;;;;;;;;7.25;7.25;;;;;;;;5057477;28;45224;-75
2022/10/04 13:39:53;;;;;;;;;5.00;5.00;;;;;;;;5058067;28;46249;-75
2022/10/04 13:42:19;;;;;;;;;7.50;7.50;;;;;;;;5046593;28;45319;-75
2022/10/04 13:44:44;;;;;;;;;6.75;6.75;;;;;;;;5055908;28;45427;-76
2022/10/04 13:47:20;;;;;;;;;5.40;5.00;;;;;;;;5052892;28;45440;-76
2022/10/04 13:49:57;;;;;;;;;7.50;5.25;;;;;;;;5048065;28;45292;-76
2022/10/04 13:57:59;;;;;;;;;3.25;3.25;;;;;;;;5058220;28;45350;-75
2022/10/04 14:00:50;;;;;;;;;5.00;5.00;;;;;;;;5056181;28;46266;-75
2022/10/04 14:03:32;;;;;;;;;3.00;3.00;;;;;;;;5020167;28;45619;-75
2022/10/04 14:05:57;;;;;;;;;1.00;1.00;;;;;;;;5044542;28;45538;-75
2022/10/04 14:08:25;;;;;;;;;5.50;3.50;;;;;;;;5053314;28;45295;-76
2022/10/04 14:10:53;;;;;;;;;4.00;4.00;;;;;;;;5045292;28;46279;-76
2022/10/04 14:13:39;;;;;;;;;3.50;3.50;;;;;;;;5059934;28;45501;-76
2022/10/04 14:16:15;;;;;;;;;3.00;3.00;;;;;;;;5042936;28;45604;-76
2022/10/04 14:18:59;;;;;;;;;2.50;2.50;;;;;;;;5054823;28;45456;-75
2022/10/04 14:21:39;;;;;;;;;4.50;4.25;;;;;;;;5053165;28;47399;-76
2022/10/04 14:24:07;;;;;;;;;5.00;3.75;;;;;;;;5058588;28;45377;-75
2022/10/04 14:26:50;;;;;;;;;4.00;4.00;;;;;;;;5053728;28;45554;-75
2022/10/04 14:29:33;;;;;;;;;4.75;4.75;;;;;;;;5044757;28;45165;-75
2022/10/04 14:32:19;;;;;;;;;4.00;4.00;;;;;;;;5049570;28;46668;-75
2022/10/04 14:34:54;;;;;;;;;12.00;12.00;;;;;;;;5051995;28;45276;-75
2022/10/04 14:37:44;;;;;;;;;6.00;6.00;;;;;;;;5047015;28;45516;-74
2022/10/04 14:40:28;;;;;;;;;3.00;3.00;;;;;;;;5045261;28;45293;-75
2022/10/04 14:42:53;;;;;;;;;4.25;3.25;;;;;;;;5048730;28;47166;-74
2022/10/04 14:45:31;;;;;;;;;5.25;4.00;;;;;;;;5050124;28;45259;-75
2022/10/04 14:48:17;;;;;;;;;5.00;3.00;;;;;;;;5055625;28;45320;-75
2022/10/04 14:50:56;;;;;;;;;5.50;3.25;;;;;;;;5055141;28;46277;-75
2022/10/04 14:53:26;;;;;;;;;3.50;3.50;;;;;;;;5070977;28;46374;-75
2022/10/04 14:56:01;;;;;;;;;1.80;1.80;;;;;;;;5044710;28;45538;-75
2022/10/04 14:58:32;;;;;;;;;2.50;2.25;;;;;;;;5056752;28;45490;-75
2022/10/04 15:00:57;;;;;;;;;2.25;2.25;;;;;;;;5041971;28;45410;-75
2022/10/04 15:03:27;;;;;;;;;2.75;2.25;;;;;;;;5056129;28;46184;-75
2022/10/04 15:05:53;;;;;;;;;1.60;1.00;;;;;;;;5042845;28;45324;-75
2022/10/04 15:08:25;;;;;;;;;2.00;2.00;;;;;;;;5061748;28;45288;-75
2022/10/04 15:10:50;;;;;;;;;1.75;1.75;;;;;;;;5056413;28;45568;-75
2022/10/04 15:13:38;;;;;;;;;2.50;2.50;;;;;;;;5063505;28;46095;-75
2022/10/04 15:16:19;;;;;;;;;1.80;1.80;;;;;;;;5045062;28;45344;-75
2022/10/04 15:18:51;;;;;;;;;3.00;3.00;;;;;;;;5057030;28;45321;-75